createdAt,value
2023-01-20T00:01:12.337Z,12.23
2023-01-20T00:03:41.534Z,12.24
2023-01-20T00:06:09.565Z,12.33
2023-01-20T00:08:36.622Z,12.31
2023-01-20T00:11:07.882Z,12.27
2023-01-20T00:13:35.950Z,12.24
2023-01-20T00:16:07.575Z,12.21
2023-01-20T00:18:35.265Z,12.11
2023-01-20T00:21:06.654Z,11.95
2023-01-20T00:23:33.800Z,11.88
2023-01-20T00:26:09.000Z,11.83
2023-01-20T00:28:36.179Z,11.77
2023-01-20T00:31:20.368Z,11.73
2023-01-20T00:33:48.165Z,11.74
2023-01-20T00:36:15.974Z,11.74
2023-01-20T00:38:43.191Z,11.72
2023-01-20T00:41:10.494Z,11.68
2023-01-20T00:43:37.674Z,11.64
2023-01-20T00:46:05.048Z,11.61
2023-01-20T00:48:32.229Z,11.59
2023-01-20T00:50:59.382Z,11.55
2023-01-20T00:53:26.622Z,11.51
2023-01-20T00:55:53.743Z,11.46
2023-01-20T00:58:20.798Z,11.43
2023-01-20T01:00:48.812Z,11.46
2023-01-20T01:03:16.127Z,11.40
2023-01-20T01:05:43.679Z,11.37
2023-01-20T01:08:12.595Z,11.35
2023-01-20T01:10:40.544Z,11.34
2023-01-20T01:13:07.684Z,11.32
2023-01-20T01:15:34.713Z,11.30
2023-01-20T01:18:01.795Z,11.28
2023-01-20T01:20:29.164Z,11.29
2023-01-20T01:22:56.281Z,11.27
2023-01-20T01:25:23.475Z,11.27
2023-01-20T01:27:50.501Z,11.33
2023-01-20T01:30:17.655Z,11.32
2023-01-20T01:32:44.684Z,11.30
2023-01-20T01:35:12.268Z,11.26
2023-01-20T01:37:39.590Z,11.22
2023-01-20T01:40:07.780Z,11.17
2023-01-20T01:42:34.846Z,11.14
2023-01-20T01:45:11.490Z,11.11
2023-01-20T01:47:42.757Z,11.05
2023-01-20T01:50:12.678Z,11.00
2023-01-20T01:52:40.423Z,10.96
2023-01-20T01:55:07.855Z,10.93
2023-01-20T01:57:34.805Z,10.91
2023-01-20T02:00:02.624Z,10.87
2023-01-20T02:02:41.717Z,10.85
2023-01-20T02:05:09.317Z,10.84
2023-01-20T02:07:36.396Z,10.73
2023-01-20T02:10:03.558Z,10.71
2023-01-20T02:12:30.558Z,10.70
2023-01-20T02:14:58.850Z,10.69
2023-01-20T02:17:55.529Z,10.68
2023-01-20T02:20:25.522Z,10.64
2023-01-20T02:23:11.434Z,10.54
2023-01-20T02:26:20.302Z,10.48
2023-01-20T02:29:25.281Z,10.41
2023-01-20T02:32:09.206Z,10.36
2023-01-20T02:35:12.296Z,10.30
2023-01-20T02:37:43.505Z,10.29
2023-01-20T02:40:29.567Z,10.25
2023-01-20T02:43:30.029Z,10.25
2023-01-20T02:46:04.244Z,10.19
2023-01-20T02:48:40.080Z,10.11
2023-01-20T02:51:13.862Z,10.13
2023-01-20T02:54:11.500Z,10.10
2023-01-20T02:56:38.549Z,10.14
2023-01-20T02:59:09.014Z,10.18
2023-01-20T03:01:49.973Z,10.25
2023-01-20T03:04:20.033Z,10.27
2023-01-20T03:06:48.703Z,10.28
2023-01-20T03:09:18.825Z,10.26
2023-01-20T03:11:51.871Z,10.24
2023-01-20T03:14:18.948Z,10.20
2023-01-20T03:16:48.499Z,10.10
2023-01-20T03:19:15.491Z,10.02
2023-01-20T03:21:42.489Z,10.01
2023-01-20T03:24:09.550Z,10.04
2023-01-20T03:26:37.084Z,10.05
2023-01-20T03:29:09.652Z,10.09
2023-01-20T03:31:41.583Z,10.12
2023-01-20T03:34:11.260Z,10.15
2023-01-20T03:36:38.591Z,10.18
2023-01-20T03:39:07.205Z,10.26
2023-01-20T03:41:43.347Z,10.39
2023-01-20T03:44:16.928Z,10.43
2023-01-20T03:47:20.537Z,10.46
2023-01-20T03:50:03.055Z,10.46
2023-01-20T03:52:46.560Z,10.45
2023-01-20T03:55:51.240Z,10.43
2023-01-20T03:58:21.436Z,10.43
2023-01-20T04:00:49.153Z,10.41
2023-01-20T04:03:21.909Z,10.42
2023-01-20T04:05:49.090Z,10.45
2023-01-20T04:08:17.247Z,10.49
2023-01-20T04:10:45.686Z,10.53
2023-01-20T04:13:12.730Z,10.56
2023-01-20T04:15:42.455Z,10.56
2023-01-20T04:18:16.176Z,10.46
2023-01-20T04:20:44.538Z,10.38
2023-01-20T04:23:32.832Z,10.29
2023-01-20T04:25:59.870Z,10.22
2023-01-20T04:28:26.945Z,10.17
2023-01-20T04:30:54.128Z,10.14
2023-01-20T04:33:21.357Z,10.08
2023-01-20T04:35:48.363Z,9.96
2023-01-20T04:38:15.503Z,9.91
2023-01-20T04:40:42.553Z,9.90
2023-01-20T04:43:10.481Z,9.91
2023-01-20T04:45:37.452Z,9.86
2023-01-20T04:48:08.657Z,9.79
2023-01-20T04:50:42.143Z,9.75
2023-01-20T04:53:13.938Z,9.69
2023-01-20T04:55:40.944Z,9.60
2023-01-20T04:58:10.000Z,9.56
2023-01-20T05:00:37.083Z,9.53
2023-01-20T05:03:04.166Z,9.50
2023-01-20T05:05:31.354Z,9.47
2023-01-20T05:07:59.810Z,9.54
2023-01-20T05:10:26.810Z,9.56
2023-01-20T05:12:53.814Z,9.56
2023-01-20T05:15:20.817Z,9.56
2023-01-20T05:17:47.781Z,9.58
2023-01-20T05:32:34.907Z,9.59
2023-01-20T05:35:02.491Z,9.91
2023-01-20T05:37:29.531Z,10.00
2023-01-20T05:39:58.683Z,10.03
2023-01-20T05:42:25.655Z,10.01
2023-01-20T05:44:54.884Z,9.96
2023-01-20T05:47:21.878Z,9.89
2023-01-20T05:49:48.899Z,9.81
2023-01-20T05:52:15.891Z,9.76
2023-01-20T05:54:42.833Z,9.71
2023-01-20T05:57:09.845Z,9.69
2023-01-20T05:59:37.052Z,9.68
2023-01-20T06:02:04.066Z,9.62
2023-01-20T06:04:31.087Z,9.53
2023-01-20T06:06:58.065Z,9.46
2023-01-20T06:09:25.065Z,9.43
2023-01-20T06:11:52.009Z,9.34
2023-01-20T06:14:19.108Z,9.27
2023-01-20T06:16:46.172Z,9.26
2023-01-20T06:19:13.422Z,9.27
2023-01-20T06:21:40.405Z,9.29
2023-01-20T06:24:08.565Z,9.33
2023-01-20T06:26:35.581Z,9.40
2023-01-20T06:29:02.622Z,9.46
2023-01-20T06:31:29.665Z,9.52
2023-01-20T06:33:56.787Z,9.58
2023-01-20T06:36:23.784Z,9.65
2023-01-20T06:38:51.256Z,9.70
2023-01-20T06:41:18.908Z,9.78
2023-01-20T06:43:45.921Z,9.86
2023-01-20T06:46:14.384Z,9.94
2023-01-20T06:48:42.150Z,10.03
2023-01-20T06:51:14.335Z,10.14
2023-01-20T06:53:41.451Z,10.23
2023-01-20T06:56:14.056Z,10.29
2023-01-20T06:58:41.116Z,10.36
2023-01-20T07:01:14.215Z,10.44
2023-01-20T07:03:44.748Z,10.53
2023-01-20T07:06:28.995Z,10.61
2023-01-20T07:08:58.553Z,10.69
2023-01-20T07:11:26.446Z,10.76
2023-01-20T07:13:53.383Z,10.78
2023-01-20T07:16:20.492Z,10.83
2023-01-20T07:18:48.604Z,10.89
2023-01-20T07:21:15.613Z,10.92
2023-01-20T07:23:42.644Z,10.96
2023-01-20T07:26:11.066Z,11.00
2023-01-20T07:28:38.188Z,11.08
2023-01-20T07:31:09.472Z,11.14
2023-01-20T07:33:36.660Z,11.17
2023-01-20T07:36:04.122Z,11.19
2023-01-20T07:38:31.094Z,11.30
2023-01-20T07:41:04.708Z,11.40
2023-01-20T07:43:32.149Z,11.47
2023-01-20T07:46:03.347Z,11.53
2023-01-20T07:48:31.659Z,11.60
2023-01-20T07:51:03.386Z,11.66
2023-01-20T07:53:30.914Z,11.71
2023-01-20T07:56:01.061Z,11.79
2023-01-20T07:58:29.164Z,11.84
2023-01-20T08:00:57.973Z,11.90
2023-01-20T08:03:27.344Z,11.95
2023-01-20T08:05:54.455Z,12.02
2023-01-20T08:08:21.482Z,12.09
2023-01-20T08:10:54.369Z,12.16
2023-01-20T08:13:21.397Z,12.21
2023-01-20T08:15:48.361Z,12.22
2023-01-20T08:18:15.360Z,12.24
2023-01-20T08:20:43.635Z,12.27
2023-01-20T08:23:10.581Z,12.32
2023-01-20T08:25:37.649Z,12.38
2023-01-20T08:28:05.580Z,12.45
2023-01-20T08:30:32.810Z,12.52
2023-01-20T08:33:00.000Z,12.60
2023-01-20T08:35:27.075Z,12.67
2023-01-20T08:37:54.028Z,12.73
2023-01-20T08:40:21.118Z,12.76
2023-01-20T08:42:48.127Z,12.76
2023-01-20T08:45:15.377Z,12.78
2023-01-20T08:47:46.296Z,12.77
2023-01-20T08:50:14.360Z,12.77
2023-01-20T08:52:42.255Z,12.77
2023-01-20T08:55:09.810Z,12.77
2023-01-20T08:57:36.898Z,12.78
2023-01-20T09:00:05.727Z,12.80
2023-01-20T09:02:32.728Z,12.82
2023-01-20T09:05:00.090Z,12.83
2023-01-20T09:07:27.418Z,12.83
2023-01-20T09:09:54.412Z,12.84
2023-01-20T09:12:21.401Z,12.86
2023-01-20T09:14:48.467Z,12.86
2023-01-20T09:17:15.415Z,12.87
2023-01-20T09:19:42.403Z,12.88
2023-01-20T09:22:09.370Z,12.89
2023-01-20T09:24:36.365Z,12.90
2023-01-20T09:27:03.464Z,12.93
2023-01-20T09:29:30.503Z,12.95
2023-01-20T09:32:00.457Z,12.98
2023-01-20T09:34:29.644Z,12.99
2023-01-20T09:36:58.474Z,13.04
2023-01-20T09:39:44.103Z,13.12
2023-01-20T09:42:58.727Z,13.20
2023-01-20T09:45:33.254Z,13.29
2023-01-20T09:48:35.511Z,13.37
2023-01-20T09:51:22.553Z,13.46
2023-01-20T09:54:00.772Z,13.52
2023-01-20T09:56:27.865Z,13.56
2023-01-20T09:59:02.359Z,13.64
2023-01-20T10:01:39.202Z,13.76
2023-01-20T10:04:12.433Z,13.89
2023-01-20T10:06:57.663Z,14.05
2023-01-20T10:09:36.608Z,14.27
2023-01-20T10:12:11.512Z,14.49
2023-01-20T10:14:55.525Z,14.69
2023-01-20T10:17:31.167Z,14.90
2023-01-20T10:20:16.088Z,15.03
2023-01-20T10:22:47.049Z,15.12
2023-01-20T10:25:28.807Z,15.18
2023-01-20T10:27:58.212Z,15.24
2023-01-20T10:30:26.984Z,15.27
2023-01-20T10:33:10.269Z,15.29
2023-01-20T10:35:52.092Z,15.21
2023-01-20T10:38:22.173Z,15.19
2023-01-20T10:40:56.001Z,15.15
2023-01-20T10:43:23.015Z,15.11
2023-01-20T10:46:17.601Z,15.06
2023-01-20T10:49:19.194Z,14.98
2023-01-20T10:51:48.290Z,15.00
2023-01-20T10:54:37.540Z,15.12
2023-01-20T10:57:06.241Z,15.15
2023-01-20T10:59:44.972Z,15.15
2023-01-20T11:02:26.027Z,15.18
2023-01-20T11:05:19.950Z,15.19
2023-01-20T11:07:47.256Z,15.20
2023-01-20T11:10:22.207Z,15.25
2023-01-20T11:12:52.253Z,15.32
2023-01-20T11:15:23.392Z,15.33
2023-01-20T11:18:16.200Z,15.38
2023-01-20T11:20:48.102Z,15.41
2023-01-20T11:23:39.679Z,15.40
2023-01-20T11:26:28.037Z,15.43
2023-01-20T11:28:58.492Z,15.47
2023-01-20T11:32:04.326Z,15.47
2023-01-20T11:34:35.772Z,15.45
2023-01-20T11:37:05.477Z,15.48
2023-01-20T11:39:45.250Z,15.49
2023-01-20T11:42:16.586Z,15.51
2023-01-20T11:45:19.831Z,15.55
2023-01-20T11:48:19.531Z,15.61
2023-01-20T11:50:58.569Z,15.67
2023-01-20T11:53:27.655Z,15.70
2023-01-20T11:55:59.597Z,15.73
2023-01-20T11:58:27.361Z,15.72
2023-01-20T12:01:05.730Z,15.68
2023-01-20T12:03:54.751Z,15.61
2023-01-20T12:19:02.272Z,15.64
2023-01-20T12:21:35.026Z,15.83
2023-01-20T12:24:42.385Z,15.83
2023-01-20T12:27:14.003Z,15.83
2023-01-20T12:29:44.976Z,15.78
2023-01-20T12:32:11.995Z,15.74
2023-01-20T12:34:39.020Z,15.71
2023-01-20T12:37:45.366Z,15.69
2023-01-20T12:40:38.521Z,15.65
2023-01-20T12:43:24.313Z,15.65
2023-01-20T12:46:36.387Z,15.62
2023-01-20T12:49:32.732Z,15.56
2023-01-20T12:52:25.764Z,15.45
2023-01-20T12:55:26.451Z,15.35
2023-01-20T12:57:56.618Z,15.33
2023-01-20T13:00:36.013Z,15.32
2023-01-20T13:03:15.411Z,15.29
2023-01-20T13:06:19.981Z,15.27
2023-01-20T13:09:21.727Z,15.28
2023-01-20T13:12:03.351Z,15.28
2023-01-20T13:15:18.495Z,15.25
2023-01-20T13:18:01.243Z,15.20
2023-01-20T13:20:28.705Z,15.18
2023-01-20T13:22:56.400Z,15.12
2023-01-20T13:25:23.519Z,15.08
2023-01-20T13:27:51.834Z,15.04
2023-01-20T13:30:37.560Z,14.98
2023-01-20T13:33:08.625Z,14.89
2023-01-20T13:35:49.972Z,14.79
2023-01-20T13:38:33.247Z,14.73
2023-01-20T13:41:03.634Z,14.68
2023-01-20T13:43:49.311Z,14.59
2023-01-20T13:46:17.186Z,14.50
2023-01-20T13:49:06.329Z,14.43
2023-01-20T13:51:36.359Z,14.38
2023-01-20T13:54:25.622Z,14.34
2023-01-20T13:56:52.881Z,14.30
2023-01-20T13:59:20.072Z,14.28
2023-01-20T14:01:47.107Z,14.25
2023-01-20T14:04:19.073Z,14.17
2023-01-20T14:06:46.500Z,14.09
2023-01-20T14:09:23.930Z,13.98
2023-01-20T14:11:55.612Z,13.82
2023-01-20T14:14:24.741Z,13.69
2023-01-20T14:16:52.481Z,13.54
2023-01-20T14:19:34.161Z,13.40
2023-01-20T14:22:16.857Z,13.26
2023-01-20T14:24:45.208Z,13.16
2023-01-20T14:27:23.420Z,13.06
2023-01-20T14:29:52.251Z,12.93
2023-01-20T14:32:25.920Z,12.81
2023-01-20T14:34:53.050Z,12.67
2023-01-20T14:37:34.668Z,12.54
2023-01-20T14:40:31.194Z,12.40
2023-01-20T14:43:08.149Z,12.32
2023-01-20T14:45:35.450Z,12.25
2023-01-20T14:48:02.896Z,12.21
2023-01-20T14:50:30.281Z,12.16
2023-01-20T14:52:57.310Z,12.09
2023-01-20T14:55:37.087Z,11.99
2023-01-20T14:58:13.860Z,11.90
2023-01-20T15:00:48.044Z,11.84
2023-01-20T15:03:17.297Z,11.80
2023-01-20T15:06:00.666Z,11.75
2023-01-20T15:08:42.937Z,11.67
2023-01-20T15:11:14.347Z,11.57
2023-01-20T15:13:45.036Z,11.50
2023-01-20T15:16:29.002Z,11.42
2023-01-20T15:19:20.904Z,11.35
2023-01-20T15:21:49.413Z,11.29
2023-01-20T15:24:21.096Z,11.27
2023-01-20T15:26:49.069Z,11.24
2023-01-20T15:29:22.825Z,11.23
2023-01-20T15:31:50.527Z,11.22
2023-01-20T15:34:18.181Z,11.20
2023-01-20T15:36:45.947Z,11.17
2023-01-20T15:39:23.150Z,11.15
2023-01-20T15:41:55.991Z,11.11
2023-01-20T15:44:24.644Z,11.07
2023-01-20T15:46:52.067Z,11.03
2023-01-20T15:49:19.143Z,10.99
2023-01-20T15:51:46.318Z,10.94
2023-01-20T15:54:16.185Z,10.88
2023-01-20T15:56:43.330Z,10.84
2023-01-20T15:59:22.712Z,10.82
2023-01-20T16:01:50.610Z,10.78
2023-01-20T16:04:17.744Z,10.74
2023-01-20T16:06:44.718Z,10.68
2023-01-20T16:09:27.671Z,10.63
2023-01-20T16:11:54.741Z,10.60
2023-01-20T16:14:22.114Z,10.57
2023-01-20T16:16:49.106Z,10.51
2023-01-20T16:19:16.085Z,10.48
2023-01-20T16:21:45.382Z,10.45
2023-01-20T16:24:12.862Z,10.40
2023-01-20T16:26:39.809Z,10.35
2023-01-20T16:29:08.847Z,10.30
2023-01-20T16:31:35.970Z,10.25
2023-01-20T16:34:04.520Z,10.21
2023-01-20T16:36:31.507Z,10.15
2023-01-20T16:38:58.484Z,10.09
2023-01-20T16:41:30.743Z,10.07
2023-01-20T16:43:58.685Z,10.02
2023-01-20T16:46:29.611Z,9.96
2023-01-20T16:49:05.401Z,9.95
2023-01-20T16:51:32.847Z,9.92
2023-01-20T16:53:59.901Z,9.87
2023-01-20T16:56:28.711Z,9.84
2023-01-20T16:58:57.946Z,9.81
2023-01-20T17:01:25.417Z,9.77
2023-01-20T17:03:55.027Z,9.76
2023-01-20T17:06:23.941Z,9.72
2023-01-20T17:08:53.719Z,9.69
2023-01-20T17:11:41.451Z,9.65
2023-01-20T17:14:09.651Z,9.61
2023-01-20T17:16:36.882Z,9.59
2023-01-20T17:19:04.029Z,9.56
2023-01-20T17:21:32.495Z,9.55
2023-01-20T17:24:01.069Z,9.53
2023-01-20T17:26:28.161Z,9.49
2023-01-20T17:28:56.038Z,9.49
2023-01-20T17:31:23.333Z,9.49
2023-01-20T17:33:51.196Z,9.48
2023-01-20T17:36:21.469Z,9.48
2023-01-20T17:38:48.569Z,9.45
2023-01-20T17:41:17.323Z,9.41
2023-01-20T17:43:48.255Z,9.36
2023-01-20T17:46:18.771Z,9.32
2023-01-20T17:48:47.001Z,9.29
2023-01-20T17:51:18.960Z,9.27
2023-01-20T17:53:45.914Z,9.24
2023-01-20T17:56:13.956Z,9.23
2023-01-20T17:58:42.404Z,9.21
2023-01-20T18:01:29.183Z,9.20
2023-01-20T18:03:56.863Z,9.21
2023-01-20T18:06:24.622Z,9.20
2023-01-20T18:08:56.666Z,9.17
2023-01-20T18:11:24.239Z,9.16
2023-01-20T18:13:52.357Z,9.15
2023-01-20T18:16:20.588Z,9.12
2023-01-20T18:18:47.953Z,9.10
2023-01-20T18:21:20.434Z,9.06
2023-01-20T18:23:48.322Z,9.02
2023-01-20T18:26:16.523Z,8.99
2023-01-20T18:28:43.653Z,8.97
2023-01-20T18:31:15.237Z,8.95
2023-01-20T18:33:47.728Z,8.90
2023-01-20T18:36:17.557Z,8.87
2023-01-20T18:38:48.642Z,8.84
2023-01-20T18:41:15.641Z,8.81
2023-01-20T18:43:42.593Z,8.79
2023-01-20T18:46:09.876Z,8.78
2023-01-20T18:48:40.937Z,8.73
2023-01-20T18:51:08.730Z,8.67
2023-01-20T18:53:35.885Z,8.62
2023-01-20T18:56:04.915Z,8.54
2023-01-20T18:58:33.280Z,8.49
2023-01-20T19:01:11.121Z,8.43
2023-01-20T19:03:38.947Z,8.37
2023-01-20T19:06:13.157Z,8.32
2023-01-20T19:08:40.539Z,8.30
2023-01-20T19:11:15.967Z,8.27
2023-01-20T19:13:43.964Z,8.28
2023-01-20T19:16:13.316Z,8.28
2023-01-20T19:18:41.431Z,8.26
2023-01-20T19:21:13.499Z,8.22
2023-01-20T19:23:40.603Z,8.16
2023-01-20T19:26:10.025Z,8.12
2023-01-20T19:28:37.109Z,8.06
2023-01-20T19:31:08.282Z,8.04
2023-01-20T19:33:35.928Z,7.99
2023-01-20T19:36:04.815Z,7.97
2023-01-20T19:38:31.979Z,7.92
2023-01-20T19:41:09.934Z,7.88
2023-01-20T19:43:37.247Z,7.86
2023-01-20T19:46:11.529Z,7.84
2023-01-20T19:48:38.830Z,7.80
2023-01-20T19:51:07.830Z,7.75
2023-01-20T19:53:35.054Z,7.68
2023-01-20T19:56:09.789Z,7.62
2023-01-20T19:58:37.081Z,7.59
2023-01-20T20:01:13.822Z,7.53
2023-01-20T20:03:41.168Z,7.48
2023-01-20T20:06:08.903Z,7.45
2023-01-20T20:08:36.744Z,7.41
2023-01-20T20:23:30.440Z,7.34
2023-01-20T20:25:57.839Z,7.52
2023-01-20T20:28:29.136Z,7.45
2023-01-20T20:31:04.041Z,7.37
2023-01-20T20:33:31.082Z,7.13
2023-01-20T20:35:58.368Z,6.77
2023-01-20T20:38:25.471Z,6.65
2023-01-20T20:40:59.263Z,6.58
2023-01-20T20:43:26.529Z,6.52
2023-01-20T20:45:53.565Z,6.44
2023-01-20T20:48:20.781Z,6.37
2023-01-20T20:50:47.909Z,6.31
2023-01-20T20:53:15.396Z,6.25
2023-01-20T20:55:42.799Z,6.22
2023-01-20T20:58:09.884Z,6.18
2023-01-20T21:00:37.669Z,6.09
2023-01-20T21:03:07.655Z,6.04
2023-01-20T21:05:35.545Z,6.01
2023-01-20T21:08:06.249Z,5.97
2023-01-20T21:10:33.406Z,5.95
2023-01-20T21:13:00.418Z,5.93
2023-01-20T21:15:27.487Z,5.91
2023-01-20T21:17:54.543Z,5.85
2023-01-20T21:20:22.071Z,5.81
2023-01-20T21:22:49.131Z,5.77
2023-01-20T21:25:17.992Z,5.75
2023-01-20T21:27:45.034Z,5.73
2023-01-20T21:30:13.630Z,5.72
2023-01-20T21:32:42.103Z,5.70
2023-01-20T21:35:09.874Z,5.69
2023-01-20T21:37:37.465Z,5.68
2023-01-20T21:40:06.106Z,5.62
2023-01-20T21:42:33.117Z,5.59
2023-01-20T21:45:00.727Z,5.56
2023-01-20T21:47:28.374Z,5.51
2023-01-20T21:50:14.232Z,5.52
2023-01-20T21:52:41.521Z,5.52
2023-01-20T21:55:13.110Z,5.50
2023-01-20T21:57:40.127Z,5.46
2023-01-20T22:00:08.836Z,5.45
2023-01-20T22:02:39.467Z,5.43
2023-01-20T22:05:11.134Z,5.40
2023-01-20T22:07:39.824Z,5.39
2023-01-20T22:10:08.392Z,5.36
2023-01-20T22:12:35.882Z,5.40
2023-01-20T22:15:03.643Z,5.66
2023-01-20T22:17:30.750Z,5.69
2023-01-20T22:19:59.648Z,5.69
2023-01-20T22:22:28.793Z,5.68
2023-01-20T22:24:55.963Z,5.63
2023-01-20T22:27:23.057Z,5.59
2023-01-20T22:29:50.058Z,5.52
2023-01-20T22:32:17.006Z,5.49
2023-01-20T22:34:44.040Z,5.46
2023-01-20T22:37:11.106Z,5.43
2023-01-20T22:39:38.105Z,5.40
2023-01-20T22:42:05.128Z,5.38
2023-01-20T22:44:32.165Z,5.33
2023-01-20T22:46:59.441Z,5.29
2023-01-20T22:49:26.534Z,5.25
2023-01-20T22:51:55.429Z,5.22
2023-01-20T22:54:22.451Z,5.20
2023-01-20T22:56:49.444Z,5.19
2023-01-20T22:59:16.429Z,5.17
2023-01-20T23:01:46.356Z,5.15
2023-01-20T23:04:13.369Z,5.12
2023-01-20T23:06:42.481Z,5.09
2023-01-20T23:09:11.352Z,5.07
2023-01-20T23:11:40.365Z,5.04
2023-01-20T23:14:09.883Z,5.01
2023-01-20T23:16:36.963Z,4.98
2023-01-20T23:19:04.652Z,4.94
2023-01-20T23:21:31.810Z,4.85
2023-01-20T23:23:58.949Z,4.83
2023-01-20T23:26:28.629Z,4.79
2023-01-20T23:28:56.362Z,4.75
2023-01-20T23:31:25.385Z,4.72
2023-01-20T23:33:53.660Z,4.66
2023-01-20T23:36:25.158Z,4.65
2023-01-20T23:38:55.996Z,4.62
2023-01-20T23:41:23.143Z,4.57
2023-01-20T23:43:50.144Z,4.53
2023-01-20T23:46:17.185Z,4.50
2023-01-20T23:48:47.456Z,4.44
2023-01-20T23:51:14.736Z,4.43
2023-01-20T23:53:41.877Z,4.40
2023-01-20T23:56:19.746Z,4.40
2023-01-20T23:58:46.847Z,4.39
